Time;durP1;ratioP1;P1;durP2;ratioP2;P2;SDS_P1;SDS_P2;PMS_P1;PMS_P2;Temp;Humidity;BMP_temperature;BMP_pressure;BME280_temperature;BME280_humidity;BME280_pressure;Samples;Min_cycle;Max_cycle;Signal;HPM_P1;HPM_P2
2022/04/19 00:03:02;;;;;;;;;;;;;;;9.53;48.56;97375.47;6371214;28;19972;-64
2022/04/19 00:06:05;;;;;;;;;;;;;;;9.67;48.90;97365.06;6370980;28;20001;-64
2022/04/19 00:09:09;;;;;;;;;;;;;;;9.51;49.36;97367.69;6371131;28;19923;-64
2022/04/19 00:12:13;;;;;;;;;;;;;;;9.41;48.98;97369.91;6374919;27;20373;-64
2022/04/19 00:15:15;;;;;;;;;;;;;;;9.32;49.22;97367.78;6375481;27;19923;-64
2022/04/19 00:18:19;;;;;;;;;;;;;;;9.34;49.17;97365.94;6375030;27;19923;-64
2022/04/19 00:21:20;;;;;;;;;;;;;;;9.33;49.01;97369.47;6374683;27;19923;-65
2022/04/19 00:24:28;;;;;;;;;;;;;;;9.37;49.07;97370.16;6375835;27;19923;-64
2022/04/19 00:27:29;;;;;;;;;;;;;;;9.39;49.05;97369.13;6374998;27;19924;-64
2022/04/19 00:30:31;;;;;;;;;;;;;;;9.40;49.12;97370.84;6375069;27;19923;-64
2022/04/19 00:33:33;;;;;;;;;;;;;;;9.39;48.92;97371.78;6374665;27;20399;-64
2022/04/19 00:36:37;;;;;;;;;;;;;;;9.47;48.84;97376.63;6375412;27;19945;-64
2022/04/19 00:39:39;;;;;;;;;;;;;;;9.56;49.08;97370.03;6374148;27;19930;-65
2022/04/19 00:42:42;;;;;;;;;;;;;;;9.64;48.95;97359.97;6375269;27;20416;-64
2022/04/19 00:45:45;;;;;;;;;;;;;;;9.68;48.91;97358.88;6375388;27;20015;-64
2022/04/19 00:48:46;;;;;;;;;;;;;;;9.70;49.04;97361.44;6374531;27;19923;-64
2022/04/19 00:51:56;;;;;;;;;;;;;;;9.72;48.66;97359.56;6375023;27;19923;-64
2022/04/19 00:54:57;;;;;;;;;;;;;;;9.78;48.76;97365.34;6374126;27;19923;-64
2022/04/19 00:57:59;;;;;;;;;;;;;;;9.85;48.32;97365.84;6374121;27;19919;-63
2022/04/19 01:01:03;;;;;;;;;;;;;;;9.90;48.12;97369.94;6374783;27;20431;-64
2022/04/19 01:04:07;;;;;;;;;;;;;;;9.95;48.52;97366.22;6374676;27;20312;-64
2022/04/19 01:07:10;;;;;;;;;;;;;;;9.96;48.11;97376.63;6374655;27;20029;-65
2022/04/19 01:10:11;;;;;;;;;;;;;;;10.01;48.32;97371.97;6373893;27;20316;-64
2022/04/19 01:13:17;;;;;;;;;;;;;;;10.01;48.32;97376.41;6355617;27;20273;-65
2022/04/19 01:16:23;;;;;;;;;;;;;;;10.04;48.48;97370.97;6374550;27;19923;-64
2022/04/19 01:19:25;;;;;;;;;;;;;;;10.12;48.21;97380.13;6373224;27;19924;-64
2022/04/19 01:22:33;;;;;;;;;;;;;;;10.16;47.96;97379.97;6372872;27;19927;-64
2022/04/19 01:25:34;;;;;;;;;;;;;;;10.24;47.95;97370.72;6373454;27;20415;-65
2022/04/19 01:28:35;;;;;;;;;;;;;;;10.33;47.74;97378.16;6355340;27;19964;-65
2022/04/19 01:31:39;;;;;;;;;;;;;;;10.43;47.69;97372.34;6373558;27;20304;-64
2022/04/19 01:34:40;;;;;;;;;;;;;;;10.51;47.77;97385.94;6373329;27;19931;-65
2022/04/19 01:37:45;;;;;;;;;;;;;;;10.62;47.28;97382.69;6373969;27;20030;-64
2022/04/19 01:40:46;;;;;;;;;;;;;;;10.71;47.08;97390.91;6373266;27;19977;-64
2022/04/19 01:43:51;;;;;;;;;;;;;;;10.84;47.37;97392.81;6373797;27;19919;-64
2022/04/19 01:46:52;;;;;;;;;;;;;;;10.85;47.34;97386.66;6372926;27;19928;-64
2022/04/19 01:49:53;;;;;;;;;;;;;;;10.92;47.20;97391.44;6373003;27;20075;-64
2022/04/19 01:52:58;;;;;;;;;;;;;;;10.99;47.81;97394.59;6373361;27;19936;-63
2022/04/19 01:55:59;;;;;;;;;;;;;;;11.03;47.42;97393.47;6372816;27;19923;-63
2022/04/19 01:59:00;;;;;;;;;;;;;;;11.13;47.65;97399.91;6373045;27;19923;-65
2022/04/19 02:02:02;;;;;;;;;;;;;;;11.27;47.83;97400.88;6372734;27;19923;-64
2022/04/19 02:05:03;;;;;;;;;;;;;;;11.18;47.97;97397.84;6372078;27;19931;-64
2022/04/19 02:08:07;;;;;;;;;;;;;;;11.22;47.44;97401.97;6373203;27;19930;-65
2022/04/19 02:11:09;;;;;;;;;;;;;;;11.52;47.84;97400.22;6372338;27;19930;-65
2022/04/19 02:14:11;;;;;;;;;;;;;;;11.41;47.44;97404.38;6372247;27;20090;-65
2022/04/19 02:17:12;;;;;;;;;;;;;;;11.50;47.87;97397.72;6371915;27;19923;-65
2022/04/19 02:20:16;;;;;;;;;;;;;;;11.44;47.80;97408.63;6371947;27;19975;-64
2022/04/19 02:23:18;;;;;;;;;;;;;;;11.34;47.71;97412.72;6371813;27;19923;-64
2022/04/19 02:26:24;;;;;;;;;;;;;;;11.42;47.97;97413.13;6372749;27;19927;-65
2022/04/19 02:29:25;;;;;;;;;;;;;;;11.49;47.66;97411.81;6371854;27;19923;-64
2022/04/19 02:32:27;;;;;;;;;;;;;;;11.63;47.02;97406.59;6371889;27;19931;-64
2022/04/19 02:35:31;;;;;;;;;;;;;;;11.73;47.01;97404.22;6370626;27;20312;-65
2022/04/19 02:38:32;;;;;;;;;;;;;;;11.84;46.68;97406.19;6371635;27;19924;-65
2022/04/19 02:41:36;;;;;;;;;;;;;;;11.94;46.72;97417.91;6371500;27;19927;-64
2022/04/19 02:44:39;;;;;;;;;;;;;;;12.01;46.63;97413.94;6371508;27;20341;-65
2022/04/19 02:47:43;;;;;;;;;;;;;;;12.17;46.98;97426.16;6371713;27;20316;-64
2022/04/19 02:50:45;;;;;;;;;;;;;;;12.21;46.84;97425.06;6371285;27;20296;-65
2022/04/19 02:53:46;;;;;;;;;;;;;;;12.21;46.62;97414.50;6370892;27;19923;-64
2022/04/19 02:56:50;;;;;;;;;;;;;;;12.27;46.75;97420.22;6371120;27;19930;-65
2022/04/19 02:59:53;;;;;;;;;;;;;;;12.30;46.70;97420.03;6370944;27;19923;-64
2022/04/19 03:02:55;;;;;;;;;;;;;;;12.36;46.65;97424.09;6371183;27;20316;-65
2022/04/19 03:05:57;;;;;;;;;;;;;;;12.51;46.70;97422.25;6370522;27;19927;-64
2022/04/19 03:08:59;;;;;;;;;;;;;;;12.81;46.48;97422.06;6352557;27;20009;-65
2022/04/19 03:12:05;;;;;;;;;;;;;;;12.99;45.91;97420.88;6371444;27;20228;-65
2022/04/19 03:15:07;;;;;;;;;;;;;;;13.35;45.38;97418.56;6371404;27;19930;-65
2022/04/19 03:18:08;;;;;;;;;;;;;;;13.67;44.83;97416.34;6371480;27;19919;-64
2022/04/19 03:21:14;;;;;;;;;;;;;;;13.96;44.43;97414.34;6371286;27;19923;-64
2022/04/19 03:27:42;;;;;;;;;;;;;;;14.19;44.25;97418.03;6371589;28;20300;-64
2022/04/19 03:30:43;;;;;;;;;;;;;;;14.45;43.91;97417.97;6370461;28;20289;-65
2022/04/19 03:33:49;;;;;;;;;;;;;;;14.70;43.56;97419.72;6370548;28;20147;-64
2022/04/19 03:36:51;;;;;;;;;;;;;;;14.83;43.22;97417.84;6370209;28;19930;-65
2022/04/19 03:39:52;;;;;;;;;;;;;;;15.06;42.95;97421.50;6369986;28;19930;-64
2022/04/19 03:42:55;;;;;;;;;;;;;;;15.21;42.90;97419.50;6370923;28;19924;-65
2022/04/19 03:45:56;;;;;;;;;;;;;;;15.40;42.65;97409.19;6371947;27;19923;-64
2022/04/19 03:48:57;;;;;;;;;;;;;;;15.63;42.28;97410.09;6375722;27;19923;-65
2022/04/19 03:52:01;;;;;;;;;;;;;;;15.86;41.83;97420.75;6375997;27;20388;-64
2022/04/19 03:55:02;;;;;;;;;;;;;;;15.76;41.91;97414.47;6376196;27;19930;-65
2022/04/19 03:58:04;;;;;;;;;;;;;;;15.82;41.99;97419.28;6375785;27;19919;-65
2022/04/19 04:01:05;;;;;;;;;;;;;;;15.72;42.25;97421.84;6375367;27;19924;-65
2022/04/19 04:04:07;;;;;;;;;;;;;;;15.59;42.31;97419.22;6375231;27;20403;-65
2022/04/19 04:07:09;;;;;;;;;;;;;;;15.62;42.42;97423.44;6356995;27;19930;-64
2022/04/19 04:10:13;;;;;;;;;;;;;;;15.74;42.14;97419.03;6376014;27;19927;-65
2022/04/19 04:13:14;;;;;;;;;;;;;;;15.99;41.72;97421.47;6356691;27;19923;-65
2022/04/19 04:16:15;;;;;;;;;;;;;;;16.15;41.36;97415.81;6375982;27;19927;-65
2022/04/19 04:19:20;;;;;;;;;;;;;;;16.36;41.24;97429.22;6375840;27;19919;-65
2022/04/19 04:22:22;;;;;;;;;;;;;;;16.57;40.79;97432.81;6375726;27;19923;-64
2022/04/19 04:25:25;;;;;;;;;;;;;;;16.73;40.70;97423.59;6375403;27;19919;-65
2022/04/19 04:28:27;;;;;;;;;;;;;;;16.87;40.40;97423.38;6374496;27;19924;-65
2022/04/19 04:31:27;;;;;;;;;;;;;;;17.03;39.57;97428.25;6374565;27;19930;-64
2022/04/19 04:34:32;;;;;;;;;;;;;;;17.25;38.63;97424.69;6374164;27;20299;-65
2022/04/19 04:37:37;;;;;;;;;;;;;;;17.33;38.64;97424.06;6375347;27;19924;-65
2022/04/19 04:40:40;;;;;;;;;;;;;;;17.63;37.91;97425.94;6375383;27;19923;-65
2022/04/19 04:43:41;;;;;;;;;;;;;;;17.97;36.97;97428.41;6374288;27;20285;-64
2022/04/19 04:50:02;;;;;;;;;;;;;;;18.47;35.63;97431.16;6374410;27;19923;-63
2022/04/19 04:53:05;;;;;;;;;;;;;;;18.78;35.33;97424.81;6373960;27;19930;-64
2022/04/19 04:56:10;;;;;;;;;;;;;;;19.01;35.22;97419.25;6374951;27;20014;-65
2022/04/19 04:59:13;;;;;;;;;;;;;;;19.24;34.79;97430.50;6373984;27;20388;-64
2022/04/19 05:02:14;;;;;;;;;;;;;;;19.46;34.36;97434.69;6374259;27;20014;-65
2022/04/19 05:05:16;;;;;;;;;;;;;;;19.72;34.25;97430.47;6373645;27;19923;-64
2022/04/19 05:08:20;;;;;;;;;;;;;;;20.14;33.76;97438.13;6374559;27;19923;-65
2022/04/19 05:11:23;;;;;;;;;;;;;;;20.54;32.90;97431.66;6373326;27;20045;-65
2022/04/19 05:14:27;;;;;;;;;;;;;;;22.33;30.40;97423.56;6374288;27;19984;-65
2022/04/19 05:17:29;;;;;;;;;;;;;;;24.82;26.98;97426.03;6373670;27;19980;-65
2022/04/19 05:20:30;;;;;;;;;;;;;;;26.88;23.74;97433.03;6373550;27;19930;-66
2022/04/19 05:23:31;;;;;;;;;;;;;;;27.64;22.47;97435.34;6373365;27;19924;-65
2022/04/19 05:26:35;;;;;;;;;;;;;;;28.38;23.01;97439.50;6372993;27;19923;-65
2022/04/19 05:29:38;;;;;;;;;;;;;;;28.92;21.79;97443.34;6373152;27;19933;-64
2022/04/19 05:32:42;;;;;;;;;;;;;;;29.76;20.74;97451.16;6374139;27;19923;-65
2022/04/19 05:35:46;;;;;;;;;;;;;;;31.18;20.47;97449.66;6374203;27;19923;-65
2022/04/19 05:38:52;;;;;;;;;;;;;;;31.82;18.54;97455.16;6372970;27;20346;-64
2022/04/19 05:41:53;;;;;;;;;;;;;;;31.17;19.65;97448.00;6372949;27;20388;-65
2022/04/19 05:44:54;;;;;;;;;;;;;;;30.57;19.38;97447.34;6373028;27;19930;-66
2022/04/19 05:47:57;;;;;;;;;;;;;;;29.50;19.95;97441.06;6373683;27;20425;-65
2022/04/19 05:51:01;;;;;;;;;;;;;;;28.47;21.20;97446.44;6373723;27;19924;-65
2022/04/19 05:54:05;;;;;;;;;;;;;;;27.02;22.92;97435.91;6373487;27;19923;-65
2022/04/19 05:57:09;;;;;;;;;;;;;;;26.04;23.86;97439.72;6372696;27;20428;-65
2022/04/19 06:00:10;;;;;;;;;;;;;;;25.04;24.85;97438.72;6372727;27;19923;-65
2022/04/19 06:06:33;;;;;;;;;;;;;;;23.74;26.29;97430.00;6372137;27;20400;-64
2022/04/19 06:09:36;;;;;;;;;;;;;;;23.49;26.42;97439.88;6372062;27;19981;-65
2022/04/19 06:12:38;;;;;;;;;;;;;;;22.68;27.67;97435.13;6372535;27;19923;-64
2022/04/19 06:15:41;;;;;;;;;;;;;;;22.42;28.15;97427.16;6372630;27;19923;-64
2022/04/19 06:18:42;;;;;;;;;;;;;;;22.33;28.24;97431.59;6371706;27;19924;-64
2022/04/19 06:21:45;;;;;;;;;;;;;;;22.50;27.95;97440.56;6352955;27;20154;-64
2022/04/19 06:24:46;;;;;;;;;;;;;;;22.82;27.75;97421.09;6371679;27;20437;-64
2022/04/19 06:27:49;;;;;;;;;;;;;;;23.14;27.27;97430.25;6371774;27;20407;-64
2022/04/19 06:30:50;;;;;;;;;;;;;;;23.35;27.23;97437.00;6371595;27;19955;-64
2022/04/19 06:33:53;;;;;;;;;;;;;;;23.56;26.82;97433.84;6353107;27;19924;-65
2022/04/19 06:36:57;;;;;;;;;;;;;;;23.41;26.63;97430.97;6372181;27;20405;-64
2022/04/19 06:40:01;;;;;;;;;;;;;;;23.33;26.78;97428.28;6371410;27;19919;-65
2022/04/19 06:43:04;;;;;;;;;;;;;;;23.69;26.53;97418.91;6371354;27;20364;-65
2022/04/19 06:46:08;;;;;;;;;;;;;;;23.73;26.47;97422.94;6371103;27;19923;-64
2022/04/19 06:49:09;;;;;;;;;;;;;;;24.14;26.02;97416.66;6370537;27;19942;-64
2022/04/19 06:52:10;;;;;;;;;;;;;;;24.33;25.54;97412.75;6371086;27;19930;-64
2022/04/19 06:55:13;;;;;;;;;;;;;;;24.49;25.57;97414.59;6371255;27;19928;-64
2022/04/19 06:58:17;;;;;;;;;;;;;;;24.62;25.27;97410.31;6371318;27;20397;-65
2022/04/19 07:01:18;;;;;;;;;;;;;;;24.11;25.92;97406.25;6370740;27;19923;-65
2022/04/19 07:04:19;;;;;;;;;;;;;;;23.90;26.22;97412.19;6370886;27;19923;-64
2022/04/19 07:07:23;;;;;;;;;;;;;;;24.14;26.09;97404.06;6370978;27;19930;-65
2022/04/19 07:10:26;;;;;;;;;;;;;;;25.57;24.32;97411.13;6371097;27;19923;-64
2022/04/19 07:13:27;;;;;;;;;;;;;;;26.83;22.66;97411.16;6370821;27;20026;-65
2022/04/19 07:16:29;;;;;;;;;;;;;;;25.94;23.42;97421.09;6370966;27;20403;-64
2022/04/19 07:29:54;;;;;;;;;;;;;;;25.12;23.17;97396.63;6370917;28;20412;-65
2022/04/19 07:32:56;;;;;;;;;;;;;;;24.40;24.18;97389.53;6370554;28;19993;-64
2022/04/19 07:35:57;;;;;;;;;;;;;;;24.02;24.85;97386.63;6370632;28;20019;-64
2022/04/19 07:38:58;;;;;;;;;;;;;;;25.97;23.14;97389.22;6370374;28;19946;-65
2022/04/19 07:45:19;;;;;;;;;;;;;;;34.27;15.85;97406.91;6370687;28;19919;-65
2022/04/19 07:48:24;;;;;;;;;;;;;;;35.56;13.93;97390.22;6370337;28;20021;-65
2022/04/19 07:51:25;;;;;;;;;;;;;;;35.47;14.36;97397.09;6370173;28;19926;-65
2022/04/19 07:54:29;;;;;;;;;;;;;;;33.46;15.08;97382.78;6371245;28;19923;-65
2022/04/19 07:57:32;;;;;;;;;;;;;;;31.59;16.41;97364.09;6371085;28;20478;-64
2022/04/19 08:00:36;;;;;;;;;;;;;;;29.82;17.71;97368.09;6371231;28;19923;-65
2022/04/19 08:03:37;;;;;;;;;;;;;;;29.06;18.60;97364.66;6370088;28;19924;-65
2022/04/19 08:06:38;;;;;;;;;;;;;;;28.52;19.22;97357.34;6370057;28;20295;-65
2022/04/19 08:09:42;;;;;;;;;;;;;;;28.54;19.49;97355.28;6370259;28;20392;-65
2022/04/19 08:12:43;;;;;;;;;;;;;;;29.34;18.37;97360.94;6369881;28;20256;-65
2022/04/19 08:15:48;;;;;;;;;;;;;;;29.08;18.70;97357.16;6370820;28;19923;-65
2022/04/19 08:18:53;;;;;;;;;;;;;;;27.63;19.77;97352.59;6370959;28;19924;-64
2022/04/19 08:21:57;;;;;;;;;;;;;;;25.70;21.45;97349.34;6370829;28;20029;-64
2022/04/19 08:25:03;;;;;;;;;;;;;;;24.23;23.26;97345.72;6370620;28;19923;-65
2022/04/19 08:28:05;;;;;;;;;;;;;;;23.66;24.08;97353.91;6370642;28;19923;-65
2022/04/19 08:31:08;;;;;;;;;;;;;;;23.50;24.38;97344.03;6370791;27;20306;-64
2022/04/19 08:34:09;;;;;;;;;;;;;;;23.65;24.29;97345.00;6375309;27;20027;-65
2022/04/19 08:37:10;;;;;;;;;;;;;;;23.55;24.26;97347.03;6375251;27;20332;-65
2022/04/19 08:40:16;;;;;;;;;;;;;;;23.40;24.70;97343.34;6374817;27;19919;-65
2022/04/19 08:43:20;;;;;;;;;;;;;;;23.33;24.70;97353.94;6374369;27;20281;-65
2022/04/19 08:46:22;;;;;;;;;;;;;;;23.34;24.60;97344.03;6356784;27;19919;-65
2022/04/19 08:49:25;;;;;;;;;;;;;;;23.66;24.16;97344.00;6374508;27;19927;-63
2022/04/19 08:52:26;;;;;;;;;;;;;;;23.47;24.40;97339.00;6373346;27;19925;-64
2022/04/19 08:58:47;;;;;;;;;;;;;;;23.06;24.99;97350.56;6374446;27;19930;-65
2022/04/19 09:01:48;;;;;;;;;;;;;;;22.66;25.17;97340.56;6374089;27;19978;-65
2022/04/19 09:04:52;;;;;;;;;;;;;;;23.19;25.01;97338.50;6373839;27;19931;-65
2022/04/19 09:07:55;;;;;;;;;;;;;;;24.23;23.66;97336.81;6373492;27;19935;-65
2022/04/19 09:11:08;;;;;;;;;;;;;;;24.23;23.62;97334.13;6374571;27;19924;-65
2022/04/19 09:14:11;;;;;;;;;;;;;;;24.62;22.81;97345.75;6374200;27;19923;-64
2022/04/19 09:17:13;;;;;;;;;;;;;;;25.20;21.73;97331.97;6374494;27;19924;-65
2022/04/19 09:20:18;;;;;;;;;;;;;;;25.53;20.98;97344.13;6373534;27;20297;-65
2022/04/19 09:23:21;;;;;;;;;;;;;;;25.31;21.48;97339.63;6373696;27;20010;-65
2022/04/19 09:26:22;;;;;;;;;;;;;;;24.87;21.71;97327.59;6373580;27;19923;-65
2022/04/19 09:29:27;;;;;;;;;;;;;;;24.91;22.18;97330.78;6373983;27;19985;-64
2022/04/19 09:32:28;;;;;;;;;;;;;;;25.29;21.79;97325.47;6373871;27;19923;-63
2022/04/19 09:35:35;;;;;;;;;;;;;;;25.62;21.38;97319.78;6374043;27;20304;-64
2022/04/19 09:38:43;;;;;;;;;;;;;;;25.48;21.63;97327.66;6372937;27;19930;-65
2022/04/19 09:41:44;;;;;;;;;;;;;;;25.65;21.85;97324.84;6373656;27;20384;-64
2022/04/19 09:44:50;;;;;;;;;;;;;;;25.94;21.78;97324.88;6373061;27;19923;-63
2022/04/19 09:47:51;;;;;;;;;;;;;;;26.58;21.02;97323.44;6372827;27;19924;-65
2022/04/19 09:50:58;;;;;;;;;;;;;;;26.38;20.65;97321.34;6372063;27;19928;-64
2022/04/19 09:54:02;;;;;;;;;;;;;;;26.54;20.62;97319.47;6372398;27;19938;-64
2022/04/19 09:57:10;;;;;;;;;;;;;;;26.52;19.97;97316.09;6371693;27;19923;-65
2022/04/19 10:00:16;;;;;;;;;;;;;;;26.03;20.71;97314.00;6373421;27;20353;-66
2022/04/19 10:10:02;;;;;;;;;;;;;;;27.57;19.88;97309.25;6373009;27;20293;-64
2022/04/19 10:13:07;;;;;;;;;;;;;;;30.73;17.09;97316.50;6372433;27;20012;-65
2022/04/19 10:16:09;;;;;;;;;;;;;;;31.12;16.08;97311.91;6372348;27;19930;-64
2022/04/19 10:19:10;;;;;;;;;;;;;;;30.11;17.45;97307.09;6372330;27;19931;-65
2022/04/19 10:22:14;;;;;;;;;;;;;;;30.43;17.14;97306.19;6372673;27;20010;-65
2022/04/19 10:25:15;;;;;;;;;;;;;;;31.35;16.50;97305.88;6371827;27;19923;-64
2022/04/19 10:28:29;;;;;;;;;;;;;;;30.23;17.38;97296.44;6372722;27;19923;-66
2022/04/19 10:31:34;;;;;;;;;;;;;;;29.11;18.12;97303.59;6371615;27;19930;-65
2022/04/19 10:34:39;;;;;;;;;;;;;;;28.76;17.96;97290.16;6371769;27;20167;-65
2022/04/19 10:37:45;;;;;;;;;;;;;;;29.29;17.92;97304.66;6372505;27;19927;-66
2022/04/19 10:40:49;;;;;;;;;;;;;;;29.37;17.47;97298.19;6371929;27;20295;-65
2022/04/19 10:44:12;;;;;;;;;;;;;;;30.91;16.16;97299.50;6372143;27;19959;-65
2022/04/19 10:47:14;;;;;;;;;;;;;;;31.96;15.53;97288.00;6372158;27;19923;-65
2022/04/19 10:50:29;;;;;;;;;;;;;;;33.01;14.75;97293.25;6371859;27;19930;-66
2022/04/19 10:53:33;;;;;;;;;;;;;;;33.89;13.75;97302.53;6370864;27;19924;-64
2022/04/19 10:56:53;;;;;;;;;;;;;;;33.20;14.08;97291.28;6370215;27;20388;-66
2022/04/19 10:59:58;;;;;;;;;;;;;;;33.59;14.16;97288.16;6371249;27;20114;-65
2022/04/19 11:03:05;;;;;;;;;;;;;;;34.07;13.58;97281.66;6371595;27;19944;-65
2022/04/19 11:06:10;;;;;;;;;;;;;;;32.87;14.57;97278.13;6370972;27;19924;-65
2022/04/19 11:09:16;;;;;;;;;;;;;;;31.95;15.22;97280.91;6371739;27;19923;-65
2022/04/19 11:12:19;;;;;;;;;;;;;;;32.16;14.56;97272.31;6370908;27;19965;-65
2022/04/19 11:15:34;;;;;;;;;;;;;;;32.83;14.17;97271.47;6370881;27;19930;-64
2022/04/19 11:18:54;;;;;;;;;;;;;;;33.05;14.13;97280.81;6371498;27;19923;-65
2022/04/19 11:21:56;;;;;;;;;;;;;;;32.28;14.51;97269.66;6370898;27;19942;-65
2022/04/19 11:25:02;;;;;;;;;;;;;;;30.90;16.09;97273.38;6370326;27;20009;-65
2022/04/19 11:28:08;;;;;;;;;;;;;;;29.92;16.78;97266.25;6370294;27;20018;-63
2022/04/19 11:31:14;;;;;;;;;;;;;;;29.04;17.19;97258.34;6371261;28;20308;-65
2022/04/19 11:34:16;;;;;;;;;;;;;;;29.24;17.12;97260.22;6370618;28;19943;-65
2022/04/19 11:37:21;;;;;;;;;;;;;;;29.83;16.47;97256.66;6352799;28;19923;-65
2022/04/19 11:47:06;;;;;;;;;;;;;;;29.36;17.38;97255.88;6370360;28;19920;-66
2022/04/19 11:50:07;;;;;;;;;;;;;;;29.14;17.46;97260.66;6369774;28;19923;-66
2022/04/19 11:53:15;;;;;;;;;;;;;;;28.23;18.12;97249.38;6369878;28;20316;-65
2022/04/19 11:56:19;;;;;;;;;;;;;;;27.99;18.56;97255.06;6370279;28;19958;-65
2022/04/19 11:59:26;;;;;;;;;;;;;;;27.95;18.76;97252.97;6370186;28;20384;-65
2022/04/19 12:02:29;;;;;;;;;;;;;;;27.10;19.41;97244.03;6371115;28;19966;-66
2022/04/19 12:05:31;;;;;;;;;;;;;;;25.99;20.68;97240.75;6370074;28;19923;-66
2022/04/19 12:08:33;;;;;;;;;;;;;;;25.67;21.07;97237.34;6374995;27;20426;-64
2022/04/19 12:11:35;;;;;;;;;;;;;;;25.92;21.06;97229.03;6376022;27;19930;-65
2022/04/19 12:14:36;;;;;;;;;;;;;;;25.20;21.79;97229.63;6375048;27;20288;-66
2022/04/19 12:17:44;;;;;;;;;;;;;;;24.37;22.80;97236.56;6374884;27;20049;-65
2022/04/19 12:20:45;;;;;;;;;;;;;;;23.59;23.54;97230.19;6374673;27;19923;-65
2022/04/19 12:23:51;;;;;;;;;;;;;;;23.24;23.90;97226.91;6374190;27;19924;-65
2022/04/19 12:27:07;;;;;;;;;;;;;;;23.07;23.91;97220.75;6355947;27;19923;-66
2022/04/19 12:30:12;;;;;;;;;;;;;;;23.04;24.16;97236.31;6374396;27;20395;-64
2022/04/19 12:33:13;;;;;;;;;;;;;;;22.83;24.40;97234.97;6374463;27;19934;-65
2022/04/19 12:36:22;;;;;;;;;;;;;;;22.39;24.63;97227.22;6375105;27;20384;-65
2022/04/19 12:39:25;;;;;;;;;;;;;;;22.34;24.88;97229.56;6375029;27;20360;-65
2022/04/19 12:42:29;;;;;;;;;;;;;;;22.15;25.08;97225.28;6374128;27;19930;-65
2022/04/19 12:45:35;;;;;;;;;;;;;;;21.97;25.32;97225.41;6356862;27;19923;-65
2022/04/19 12:48:39;;;;;;;;;;;;;;;21.86;25.65;97220.34;6373662;27;20300;-65
2022/04/19 12:51:56;;;;;;;;;;;;;;;21.63;25.74;97222.75;6374443;27;20745;-65
2022/04/19 12:55:02;;;;;;;;;;;;;;;21.48;26.21;97219.81;6373882;27;19924;-66
2022/04/19 13:01:27;;;;;;;;;;;;;;;21.19;26.81;97219.28;6373485;27;20308;-65
2022/04/19 13:04:29;;;;;;;;;;;;;;;20.97;27.77;97217.97;6373561;27;20314;-65
2022/04/19 13:14:13;;;;;;;;;;;;;;;21.24;27.09;97208.97;6372784;27;19923;-64
2022/04/19 13:17:23;;;;;;;;;;;;;;;21.42;27.25;97209.75;6373937;27;19923;-65
2022/04/19 13:20:26;;;;;;;;;;;;;;;21.57;27.12;97203.78;6372927;27;19935;-65
2022/04/19 13:23:29;;;;;;;;;;;;;;;21.55;27.22;97205.81;6373831;27;19923;-65
2022/04/19 13:26:34;;;;;;;;;;;;;;;21.42;27.61;97201.72;6373138;27;19968;-65
2022/04/19 13:29:36;;;;;;;;;;;;;;;21.23;28.26;97207.25;6373164;27;20273;-65
2022/04/19 13:32:38;;;;;;;;;;;;;;;20.85;29.08;97204.00;6373143;27;19923;-65
2022/04/19 13:35:39;;;;;;;;;;;;;;;20.62;29.62;97212.50;6373812;27;19923;-65
2022/04/19 13:38:40;;;;;;;;;;;;;;;20.46;29.73;97217.69;6373696;27;20049;-66
2022/04/19 13:41:42;;;;;;;;;;;;;;;20.18;29.84;97209.75;6373712;27;19919;-64
2022/04/19 13:44:43;;;;;;;;;;;;;;;20.04;30.01;97210.25;6354637;27;20395;-65
2022/04/19 13:47:44;;;;;;;;;;;;;;;19.99;30.03;97209.03;6372751;27;19975;-66
2022/04/19 13:50:47;;;;;;;;;;;;;;;19.96;30.23;97204.84;6373404;27;19923;-65
2022/04/19 13:53:51;;;;;;;;;;;;;;;19.97;30.44;97209.19;6373317;27;19924;-64
2022/04/19 13:57:01;;;;;;;;;;;;;;;19.88;30.80;97210.06;6371983;27;19923;-65
2022/04/19 14:00:02;;;;;;;;;;;;;;;19.73;31.56;97207.91;6354739;27;19923;-65
2022/04/19 14:03:07;;;;;;;;;;;;;;;19.49;32.03;97203.06;6373100;27;19930;-67
2022/04/19 14:06:11;;;;;;;;;;;;;;;19.42;32.62;97209.13;6354020;27;19931;-65
2022/04/19 14:09:15;;;;;;;;;;;;;;;19.07;32.85;97199.97;6371933;27;19931;-65
2022/04/19 14:12:21;;;;;;;;;;;;;;;18.80;33.20;97204.25;6372786;27;19964;-66
2022/04/19 14:15:22;;;;;;;;;;;;;;;18.66;33.15;97206.50;6371872;27;20014;-66
2022/04/19 14:18:27;;;;;;;;;;;;;;;18.58;33.29;97196.53;6371863;27;19927;-66
2022/04/19 14:21:31;;;;;;;;;;;;;;;18.57;33.39;97205.50;6373073;27;20396;-66
2022/04/19 14:24:33;;;;;;;;;;;;;;;18.50;33.35;97207.88;6371736;27;19923;-65
2022/04/19 14:27:34;;;;;;;;;;;;;;;18.45;33.48;97204.78;6371635;27;20446;-65
2022/04/19 14:33:57;;;;;;;;;;;;;;;18.31;33.76;97207.88;6371434;27;19923;-66
2022/04/19 14:37:00;;;;;;;;;;;;;;;18.18;33.95;97200.19;6371487;27;20437;-65
2022/04/19 14:40:02;;;;;;;;;;;;;;;18.18;34.23;97205.50;6371687;27;19930;-65
2022/04/19 14:43:07;;;;;;;;;;;;;;;18.08;34.61;97204.63;6372099;27;19924;-65
2022/04/19 14:46:11;;;;;;;;;;;;;;;17.97;35.29;97199.44;6371918;27;20392;-66
2022/04/19 14:49:17;;;;;;;;;;;;;;;17.75;35.66;97201.34;6372028;27;19923;-65
2022/04/19 14:52:18;;;;;;;;;;;;;;;17.72;36.06;97199.78;6371036;27;19936;-64
2022/04/19 14:55:20;;;;;;;;;;;;;;;17.58;36.26;97199.28;6371199;27;19929;-65
2022/04/19 14:58:23;;;;;;;;;;;;;;;17.68;36.46;97205.50;6371097;27;20411;-65
2022/04/19 15:01:30;;;;;;;;;;;;;;;17.51;36.85;97205.16;6370768;27;19972;-65
2022/04/19 15:04:31;;;;;;;;;;;;;;;17.39;36.98;97200.09;6370858;27;19923;-66
2022/04/19 15:07:35;;;;;;;;;;;;;;;17.35;36.99;97209.28;6370779;27;19924;-65
2022/04/19 15:10:38;;;;;;;;;;;;;;;17.13;37.25;97202.34;6370524;27;19927;-66
2022/04/19 15:13:43;;;;;;;;;;;;;;;16.98;37.50;97205.31;6371094;27;19923;-65
2022/04/19 15:16:44;;;;;;;;;;;;;;;16.91;37.97;97206.84;6370487;27;19923;-66
2022/04/19 15:19:50;;;;;;;;;;;;;;;16.73;38.13;97221.63;6371322;27;20444;-65
2022/04/19 15:22:51;;;;;;;;;;;;;;;16.54;38.43;97222.38;6369984;27;20367;-65
2022/04/19 15:25:54;;;;;;;;;;;;;;;16.40;38.58;97223.50;6371436;27;19920;-65
2022/04/19 15:28:55;;;;;;;;;;;;;;;16.33;39.04;97228.50;6370470;27;20025;-65
2022/04/19 15:31:57;;;;;;;;;;;;;;;16.24;39.38;97234.53;6370681;28;20288;-66
2022/04/19 15:35:00;;;;;;;;;;;;;;;16.02;39.60;97240.78;6371246;28;19923;-65
2022/04/19 15:38:04;;;;;;;;;;;;;;;15.89;39.83;97240.91;6370684;28;19923;-66
2022/04/19 15:41:08;;;;;;;;;;;;;;;15.78;40.12;97240.09;6370782;27;19923;-65
2022/04/19 15:44:12;;;;;;;;;;;;;;;15.71;40.46;97237.94;6376656;27;19927;-65
2022/04/19 15:47:13;;;;;;;;;;;;;;;15.60;40.56;97229.13;6375691;27;19928;-65
2022/04/19 15:50:16;;;;;;;;;;;;;;;15.58;40.63;97228.38;6376417;27;20404;-66
2022/04/19 15:53:23;;;;;;;;;;;;;;;15.56;40.73;97236.44;6376346;27;20010;-65
2022/04/19 15:56:27;;;;;;;;;;;;;;;15.48;41.08;97236.22;6375505;27;19923;-64
2022/04/19 15:59:29;;;;;;;;;;;;;;;15.43;41.10;97233.94;6375661;27;19962;-65
2022/04/19 16:02:33;;;;;;;;;;;;;;;15.42;41.28;97239.34;6375296;27;20420;-65
2022/04/19 16:05:34;;;;;;;;;;;;;;;15.35;41.31;97246.13;6374798;27;19923;-65
2022/04/19 16:08:35;;;;;;;;;;;;;;;15.27;41.75;97239.59;6356893;27;20441;-66
2022/04/19 16:11:36;;;;;;;;;;;;;;;15.21;41.57;97234.75;6374890;27;19941;-66
2022/04/19 16:14:42;;;;;;;;;;;;;;;15.21;42.27;97241.88;6374629;27;19923;-66
2022/04/19 16:24:22;;;;;;;;;;;;;;;14.92;42.23;97246.75;6375989;27;19931;-65
2022/04/19 16:27:27;;;;;;;;;;;;;;;14.89;42.36;97244.34;6375596;27;19919;-66
2022/04/19 16:30:28;;;;;;;;;;;;;;;14.86;42.30;97239.28;6374413;27;20304;-65
2022/04/19 16:33:32;;;;;;;;;;;;;;;14.86;42.35;97245.44;6375529;27;19923;-66
2022/04/19 16:36:33;;;;;;;;;;;;;;;14.84;42.28;97247.38;6374595;27;19927;-65
2022/04/19 16:39:34;;;;;;;;;;;;;;;14.79;42.30;97239.75;6374584;27;20025;-65
2022/04/19 16:42:42;;;;;;;;;;;;;;;14.80;42.47;97249.41;6374801;27;20411;-65
2022/04/19 16:45:46;;;;;;;;;;;;;;;14.77;42.57;97246.13;6375030;27;19924;-65
2022/04/19 16:48:47;;;;;;;;;;;;;;;14.73;42.71;97245.53;6375296;27;19923;-65
2022/04/19 16:51:48;;;;;;;;;;;;;;;14.69;42.64;97241.44;6375362;27;20014;-64
2022/04/19 16:54:49;;;;;;;;;;;;;;;14.68;42.76;97239.72;6373808;27;20410;-65
2022/04/19 16:57:53;;;;;;;;;;;;;;;14.74;42.63;97241.91;6374351;27;19964;-65